Time;durP1;ratioP1;P1;durP2;ratioP2;P2;SDS_P1;SDS_P2;PMS_P1;PMS_P2;Temp;Humidity;BMP_temperature;BMP_pressure;BME280_temperature;BME280_humidity;BME280_pressure;Samples;Min_cycle;Max_cycle;Signal;HPM_P1;HPM_P2
2023/01/14 00:01:45;;;;;;;3.83;1.37;;;9.80;84.80;;;12.61;59.13;100955.34;5015669;28;20697;-52
2023/01/14 00:04:13;;;;;;;3.63;1.00;;;9.90;84.90;;;12.63;58.51;100958.63;5016631;28;20195;-52
2023/01/14 00:06:41;;;;;;;3.10;1.33;;;9.90;84.90;;;12.68;58.79;100956.28;5015612;28;20252;-53
2023/01/14 00:09:11;;;;;;;3.90;1.10;;;9.90;84.90;;;12.72;58.56;100962.81;5015730;28;20222;-53
2023/01/14 00:11:50;;;;;;;4.90;1.43;;;9.90;85.00;;;12.70;58.20;100964.81;5034155;28;20520;-52
2023/01/14 00:14:21;;;;;;;3.63;1.40;;;9.90;84.80;;;12.68;58.32;100961.56;5031514;28;20215;-53
2023/01/14 00:16:50;;;;;;;3.77;1.20;;;9.90;84.80;;;12.68;58.43;100966.84;5015012;28;20195;-52
2023/01/14 00:19:18;;;;;;;2.17;1.30;;;9.90;84.80;;;12.69;58.43;100971.13;5015491;28;20211;-55
2023/01/14 00:21:48;;;;;;;4.23;1.50;;;9.90;84.70;;;12.67;58.38;100971.28;5017839;28;20301;-55
2023/01/14 00:24:18;;;;;;;4.07;1.70;;;9.90;84.70;;;12.65;58.46;100970.66;5034941;28;20199;-52
2023/01/14 00:26:49;;;;;;;5.93;1.57;;;9.90;84.60;;;12.60;58.29;100974.88;5033025;28;20640;-51
2023/01/14 00:29:21;;;;;;;4.83;1.63;;;9.90;84.40;;;12.58;58.50;100968.91;5034355;28;20218;-53
2023/01/14 00:31:48;;;;;;;4.00;1.50;;;9.90;84.40;;;12.58;58.46;100971.56;5024505;28;20218;-53
2023/01/14 00:34:16;;;;;;;3.93;1.63;;;9.80;84.40;;;12.57;58.62;100975.22;5014465;28;20195;-53
2023/01/14 00:36:44;;;;;;;7.20;1.80;;;9.80;84.50;;;12.54;58.61;100970.28;5022356;28;20198;-54
2023/01/14 00:39:13;;;;;;;6.07;1.80;;;9.80;84.60;;;12.50;58.35;100980.41;5035002;28;20235;-54
2023/01/14 00:41:40;;;;;;;6.27;1.90;;;9.80;84.50;;;12.45;58.55;100985.41;5034967;28;20217;-53
2023/01/14 00:44:08;;;;;;;3.33;1.57;;;9.80;84.60;;;12.40;58.87;100979.03;5015259;28;20305;-53
2023/01/14 00:46:38;;;;;;;5.90;1.93;;;9.70;84.70;;;12.38;58.86;100981.03;5013796;28;20269;-52
2023/01/14 00:49:08;;;;;;;10.90;2.30;;;9.70;84.80;;;12.41;58.90;100983.31;5025884;28;20225;-53
2023/01/14 00:51:35;;;;;;;5.17;1.60;;;9.70;84.90;;;12.46;59.01;100988.84;5034024;28;20198;-53
2023/01/14 00:54:03;;;;;;;3.63;1.50;;;9.70;85.00;;;12.48;58.88;100992.16;5021314;28;20201;-52
2023/01/14 00:56:32;;;;;;;4.80;1.63;;;9.70;85.20;;;12.52;58.66;100993.41;5026132;28;20603;-51
2023/01/14 00:58:59;;;;;;;4.27;1.43;;;9.70;85.10;;;12.51;58.66;100991.75;5033392;28;20608;-52
2023/01/14 01:01:26;;;;;;;6.43;1.87;;;9.70;85.00;;;12.54;58.81;100996.69;5034632;28;20220;-53
2023/01/14 01:03:56;;;;;;;3.40;1.70;;;9.70;84.90;;;12.54;58.56;100994.88;5034329;28;20261;-53
2023/01/14 01:06:26;;;;;;;2.50;1.30;;;9.70;84.80;;;12.54;58.49;101007.25;5018203;28;20279;-53
2023/01/14 01:08:58;;;;;;;5.83;1.40;;;9.70;84.70;;;12.54;58.42;101000.16;5019517;28;20214;-53
2023/01/14 01:11:26;;;;;;;5.13;1.80;;;9.70;84.50;;;12.55;58.32;100993.06;5034046;28;20185;-53
2023/01/14 01:13:55;;;;;;;2.23;1.33;;;9.70;84.40;;;12.51;58.22;100997.03;5033581;28;20221;-53
2023/01/14 01:16:27;;;;;;;4.43;1.60;;;9.70;84.20;;;12.46;58.14;100992.31;5013102;28;20219;-54
2023/01/14 01:18:56;;;;;;;6.63;1.77;;;9.70;84.10;;;12.42;58.21;101003.41;5020623;28;20215;-54
2023/01/14 01:21:24;;;;;;;3.37;1.50;;;9.70;84.00;;;12.41;58.51;101007.88;5030757;28;20562;-53
2023/01/14 01:23:52;;;;;;;3.80;1.93;;;9.70;84.10;;;12.41;58.53;101012.34;5012192;28;20202;-53
2023/01/14 01:26:22;;;;;;;4.40;1.50;;;9.70;84.20;;;12.41;58.12;101013.16;5011923;28;20209;-53
2023/01/14 01:28:53;;;;;;;3.80;1.63;;;9.60;84.20;;;12.42;58.23;101008.69;5012176;28;20294;-55
2023/01/14 01:31:22;;;;;;;3.90;1.80;;;9.60;84.20;;;12.39;58.06;101022.25;5013277;28;20187;-53
2023/01/14 01:33:50;;;;;;;3.30;1.77;;;9.60;84.30;;;12.35;58.28;101023.59;5013799;28;20223;-54
2023/01/14 01:36:20;;;;;;;5.57;1.80;;;9.60;84.30;;;12.30;58.29;101026.78;5013560;28;20629;-55
2023/01/14 01:38:48;;;;;;;4.40;1.70;;;9.60;84.30;;;12.24;58.46;101023.03;5015038;28;20207;-53
2023/01/14 01:41:17;;;;;;;3.97;1.83;;;9.60;84.20;;;12.20;58.47;101020.94;5023246;28;20211;-53
2023/01/14 01:44:01;;;;;;;6.70;1.80;;;9.50;84.10;;;12.11;58.65;101022.81;5033605;28;20209;-54
2023/01/14 01:46:31;;;;;;;6.27;1.80;;;9.50;84.40;;;12.08;58.76;101038.16;5033673;28;20191;-54
2023/01/14 01:49:05;;;;;;;4.57;1.77;;;9.50;84.40;;;12.04;58.77;101042.16;5031537;28;20210;-54
2023/01/14 01:51:41;;;;;;;3.50;1.50;;;9.40;84.50;;;11.99;58.72;101045.34;5033232;28;20197;-51
2023/01/14 01:54:08;;;;;;;4.07;1.47;;;9.40;84.60;;;11.97;58.74;101042.06;5020560;28;20217;-54
2023/01/14 01:56:39;;;;;;;5.77;1.70;;;9.30;84.60;;;11.93;59.03;101043.38;5028427;28;20267;-51
2023/01/14 01:59:10;;;;;;;4.43;1.93;;;9.30;84.80;;;11.92;59.19;101033.84;5037416;28;20627;-53
2023/01/14 02:01:41;;;;;;;6.70;2.03;;;9.30;85.00;;;11.92;58.88;101041.75;5037094;28;20209;-55
2023/01/14 02:04:10;;;;;;;5.33;1.70;;;9.30;85.10;;;11.96;59.28;101050.97;5034215;28;20233;-52
2023/01/14 02:06:38;;;;;;;3.00;1.60;;;9.20;85.10;;;11.97;59.24;101049.97;5017041;28;20238;-53
2023/01/14 02:09:07;;;;;;;4.90;1.93;;;9.20;85.20;;;11.91;59.17;101053.28;5017524;28;20203;-53
2023/01/14 02:12:17;;;;;;;7.23;1.90;;;9.20;85.20;;;11.86;59.39;101050.38;5033570;28;20199;-53
2023/01/14 02:15:05;;;;;;;6.80;2.27;;;9.30;85.20;;;11.93;59.33;101051.31;5016611;28;20207;-53
2023/01/14 02:17:58;;;;;;;4.17;1.73;;;9.20;85.30;;;11.96;59.07;101055.41;5016911;28;20211;-54
2023/01/14 02:20:35;;;;;;;5.30;1.77;;;9.20;85.40;;;12.00;59.50;101062.81;5035092;28;20245;-52
2023/01/14 02:24:01;;;;;;;4.17;2.30;;;9.20;85.60;;;12.02;59.35;101060.81;5036057;28;20261;-54
2023/01/14 02:27:23;;;;;;;5.97;2.53;;;9.30;85.70;;;12.05;59.09;101049.09;5019017;28;20570;-53
2023/01/14 02:30:11;;;;;;;4.53;1.87;;;9.30;85.70;;;12.06;59.35;101054.19;5051131;28;20207;-54
2023/01/14 02:32:43;;;;;;;6.77;2.50;;;9.30;85.70;;;12.12;59.13;101055.31;5036385;28;20210;-53
2023/01/14 02:35:25;;;;;;;6.90;2.03;;;9.40;85.80;;;12.10;59.13;101058.09;5036445;28;20669;-54
2023/01/14 02:38:08;;;;;;;6.20;1.80;;;9.40;85.80;;;12.14;59.35;101058.59;5034131;28;20206;-55
2023/01/14 02:40:45;;;;;;;6.77;2.23;;;9.40;85.80;;;12.18;59.14;101071.25;5036377;28;20192;-51
2023/01/14 02:46:18;;;;;;;7.80;2.37;;;9.40;85.90;;;12.21;59.37;101076.19;5026777;28;20321;-53
2023/01/14 02:48:47;;;;;;;4.93;2.20;;;9.50;85.90;;;12.24;59.45;101065.25;5036044;28;20214;-54
2023/01/14 02:51:15;;;;;;;5.80;2.40;;;9.50;85.90;;;12.27;59.21;101066.72;5035128;28;20515;-51
2023/01/14 02:53:42;;;;;;;5.50;2.13;;;9.50;85.80;;;12.29;59.22;101061.28;5028342;28;20199;-53
2023/01/14 02:56:11;;;;;;;11.03;2.77;;;9.50;85.80;;;12.29;59.14;101066.56;5025586;28;20198;-52
2023/01/14 02:59:26;;;;;;;7.87;2.43;;;9.50;85.70;;;12.21;59.33;101065.63;5035474;28;20218;-52
2023/01/14 03:02:24;;;;;;;6.60;2.77;;;9.50;85.80;;;12.21;59.33;101062.16;5014585;28;20246;-53
2023/01/14 03:05:17;;;;;;;8.80;3.00;;;9.50;85.90;;;12.20;59.40;101074.53;5020888;28;20579;-55
2023/01/14 03:07:50;;;;;;;10.60;3.10;;;9.50;86.00;;;12.23;59.37;101074.19;5037404;28;20206;-52
2023/01/14 03:10:25;;;;;;;10.33;3.07;;;9.50;86.00;;;12.19;59.74;101072.88;5035459;28;20210;-54
2023/01/14 03:13:09;;;;;;;8.10;3.07;;;9.40;86.00;;;12.20;59.49;101069.25;5015334;28;20175;-51
2023/01/14 03:15:45;;;;;;;6.90;2.50;;;9.50;86.20;;;12.22;59.66;101072.53;5035813;28;20206;-53
2023/01/14 03:18:23;;;;;;;8.73;3.57;;;9.50;86.10;;;12.22;59.59;101066.44;5031681;28;20206;-51
2023/01/14 03:20:59;;;;;;;7.57;2.67;;;9.50;86.00;;;12.26;59.51;101074.81;5014438;28;20223;-53
2023/01/14 03:23:32;;;;;;;7.20;2.50;;;9.50;86.10;;;12.26;59.61;101066.91;5014308;28;20190;-54
2023/01/14 03:26:04;;;;;;;7.60;3.50;;;9.50;85.90;;;12.26;59.39;101073.00;5014663;28;20656;-53
2023/01/14 03:28:38;;;;;;;9.97;3.40;;;9.50;85.90;;;12.28;59.19;101067.53;5015760;28;20224;-55
2023/01/14 03:31:12;;;;;;;6.27;2.40;;;9.50;85.90;;;12.30;59.29;101069.00;5035355;28;20196;-54
2023/01/14 03:33:47;;;;;;;7.20;3.17;;;9.50;86.10;;;12.32;59.18;101071.47;5034268;28;20203;-52
2023/01/14 03:36:15;;;;;;;7.53;3.00;;;9.50;85.90;;;12.34;59.28;101066.84;5035542;28;20174;-54
2023/01/14 03:38:48;;;;;;;8.37;2.70;;;9.50;85.80;;;12.26;58.97;101072.19;5035682;28;20241;-52
2023/01/14 03:44:20;;;;;;;8.47;3.50;;;9.60;85.60;;;12.25;59.42;101071.34;5034960;28;20198;-52
2023/01/14 03:46:47;;;;;;;8.73;3.27;;;9.60;85.70;;;12.32;59.46;101076.75;5028731;28;20191;-55
2023/01/14 03:49:16;;;;;;;9.17;3.00;;;9.60;85.70;;;12.39;59.44;101065.31;5025142;28;20213;-55
2023/01/14 03:51:52;;;;;;;7.67;3.20;;;9.60;85.80;;;12.47;58.98;101072.34;5016266;28;20230;-53
2023/01/14 03:54:27;;;;;;;10.30;3.50;;;9.60;85.80;;;12.50;59.24;101069.34;5015391;28;20191;-52
2023/01/14 03:57:08;;;;;;;13.30;3.67;;;9.60;85.70;;;12.52;58.84;101062.06;5030575;28;20198;-53
2023/01/14 03:59:47;;;;;;;11.33;3.33;;;9.70;85.80;;;12.50;58.79;101070.19;5035072;28;20205;-56
2023/01/14 04:02:17;;;;;;;9.97;3.37;;;9.70;85.80;;;12.53;59.03;101071.59;5045643;28;20631;-54
2023/01/14 04:04:47;;;;;;;8.93;2.93;;;9.70;85.70;;;12.54;58.97;101078.53;5032758;28;20194;-52
2023/01/14 04:07:15;;;;;;;8.03;2.60;;;9.70;85.60;;;12.57;59.02;101080.84;5028948;28;20203;-53
2023/01/14 04:09:42;;;;;;;8.80;3.20;;;9.70;85.60;;;12.57;58.97;101080.84;5015063;28;20542;-53
2023/01/14 04:12:09;;;;;;;7.53;3.13;;;9.70;85.60;;;12.58;58.90;101093.03;5029384;28;20202;-52
2023/01/14 04:17:22;;;;;;;11.20;2.80;;;9.80;85.70;;;12.61;58.77;101077.66;5015175;28;20293;-53
2023/01/14 04:19:50;;;;;;;9.47;2.53;;;9.80;85.70;;;12.64;58.72;101087.03;5014646;28;20207;-55
2023/01/14 04:22:17;;;;;;;8.20;2.80;;;9.80;85.60;;;12.65;58.88;101088.66;5014621;28;20623;-52
2023/01/14 04:24:44;;;;;;;6.30;3.10;;;9.80;85.70;;;12.66;58.72;101087.69;5014205;28;20200;-54
2023/01/14 04:27:11;;;;;;;8.10;3.23;;;9.80;85.60;;;12.66;58.99;101085.03;5015068;28;20202;-54
2023/01/14 04:29:38;;;;;;;7.83;2.50;;;9.80;85.50;;;12.65;58.51;101083.38;5029316;28;20217;-52
2023/01/14 04:32:05;;;;;;;9.30;2.80;;;9.80;85.40;;;12.56;58.84;101084.47;5034848;28;20187;-52
2023/01/14 04:34:32;;;;;;;8.07;2.67;;;9.80;85.20;;;12.60;58.83;101080.50;5034443;28;20186;-54
2023/01/14 04:37:00;;;;;;;5.67;2.47;;;9.80;85.30;;;12.65;58.87;101078.09;5034764;28;20700;-53
2023/01/14 04:39:27;;;;;;;10.70;3.00;;;9.80;85.30;;;12.68;58.67;101078.56;5022729;28;20195;-54
2023/01/14 04:44:40;;;;;;;10.27;2.90;;;9.90;85.00;;;12.67;58.14;101070.84;5021201;28;20568;-54
2023/01/14 04:47:07;;;;;;;9.23;2.33;;;9.90;84.70;;;12.64;58.58;101071.19;5034500;28;20194;-54
2023/01/14 04:49:34;;;;;;;9.50;2.67;;;9.90;84.60;;;12.60;58.43;101076.00;5033908;28;20205;-54
2023/01/14 04:52:02;;;;;;;8.47;2.80;;;9.90;84.60;;;12.54;58.43;101082.00;5034202;28;20229;-54
2023/01/14 04:54:29;;;;;;;9.00;3.40;;;9.90;84.40;;;12.50;58.70;101074.63;5019208;28;20195;-52
2023/01/14 04:56:56;;;;;;;10.60;3.03;;;9.80;84.10;;;12.42;58.74;101072.03;5028378;28;20280;-54
2023/01/14 04:59:23;;;;;;;12.00;2.57;;;9.80;84.20;;;12.37;58.68;101067.31;5033587;28;20232;-53
2023/01/14 05:01:50;;;;;;;10.20;2.80;;;9.80;84.10;;;12.33;58.94;101073.94;5033676;28;20221;-56
2023/01/14 05:04:18;;;;;;;9.33;2.63;;;9.90;84.30;;;12.28;59.20;101078.09;5022284;28;20214;-53
2023/01/14 05:06:45;;;;;;;8.50;3.20;;;9.80;84.10;;;12.30;59.04;101068.19;5021261;28;20248;-52
2023/01/14 05:09:13;;;;;;;6.83;2.67;;;9.80;84.20;;;12.30;58.91;101068.19;5032373;28;20229;-54
2023/01/14 05:11:40;;;;;;;8.70;2.70;;;9.80;84.30;;;12.34;58.87;101064.22;5030910;28;20190;-54
2023/01/14 05:14:09;;;;;;;8.33;3.10;;;9.80;84.30;;;12.29;58.92;101077.91;5031970;28;20203;-53
2023/01/14 05:16:36;;;;;;;7.73;2.93;;;9.70;84.20;;;12.31;58.83;101077.75;5031700;28;20240;-53
2023/01/14 05:19:03;;;;;;;13.47;3.10;;;9.70;84.40;;;12.27;59.14;101081.72;5031820;28;20210;-55
2023/01/14 05:21:30;;;;;;;8.50;3.20;;;9.70;84.50;;;12.26;59.07;101061.63;5017104;28;20205;-52
2023/01/14 05:23:57;;;;;;;8.67;3.13;;;9.70;84.50;;;12.30;59.04;101068.19;5016810;28;20213;-52
2023/01/14 05:26:26;;;;;;;11.27;3.63;;;9.60;84.60;;;12.30;58.82;101053.19;5033129;28;20201;-53
2023/01/14 05:28:53;;;;;;;8.20;3.40;;;9.60;84.60;;;12.23;58.80;101058.34;5033663;28;20248;-54
2023/01/14 05:31:20;;;;;;;17.80;4.17;;;9.60;84.50;;;12.14;59.18;101059.41;5033768;28;20274;-55
2023/01/14 05:33:47;;;;;;;11.93;3.67;;;9.60;84.60;;;12.07;59.36;101055.84;5035788;28;20225;-53
2023/01/14 05:36:13;;;;;;;13.77;4.77;;;9.60;84.50;;;12.02;59.50;101050.28;5018355;28;20187;-52
2023/01/14 05:38:42;;;;;;;12.40;3.77;;;9.60;84.60;;;11.95;59.35;101049.34;5029469;28;20217;-53
2023/01/14 05:41:12;;;;;;;11.20;3.60;;;9.50;84.70;;;11.94;59.74;101052.97;5037048;28;20203;-53
2023/01/14 05:46:26;;;;;;;12.50;4.43;;;9.50;84.70;;;11.92;59.61;101038.31;5036941;28;20194;-53
2023/01/14 05:48:53;;;;;;;13.20;3.77;;;9.40;84.70;;;11.89;59.54;101043.91;5034847;28;20226;-53
2023/01/14 05:51:20;;;;;;;9.90;3.80;;;9.40;84.80;;;11.88;59.48;101037.84;5037349;28;20187;-52
2023/01/14 05:53:47;;;;;;;9.10;4.23;;;9.40;84.70;;;11.89;59.56;101022.81;5028833;28;20202;-54
2023/01/14 05:56:14;;;;;;;12.80;4.60;;;9.40;84.70;;;11.84;59.49;101019.91;5027342;28;20281;-55
2023/01/14 05:58:42;;;;;;;18.07;4.93;;;9.30;84.60;;;11.79;59.62;101023.06;5037419;28;20221;-52
2023/01/14 06:06:50;;;;;;;9.43;4.23;;;9.30;84.80;;;11.60;60.02;101014.75;5036012;28;20186;-53
2023/01/14 06:09:19;;;;;;;12.10;3.67;;;9.20;84.80;;;11.60;60.12;101015.56;5005060;28;20610;-55
2023/01/14 06:11:50;;;;;;;8.83;4.20;;;9.20;84.90;;;11.64;59.68;101011.59;5017103;28;20195;-55
2023/01/14 06:14:18;;;;;;;13.27;4.63;;;9.10;84.80;;;11.62;59.68;101005.69;5000358;28;20195;-55
2023/01/14 06:16:51;;;;;;;18.33;5.23;;;9.10;84.90;;;11.59;59.84;101011.31;5016853;28;20195;-54
2023/01/14 06:19:18;;;;;;;13.27;4.40;;;9.10;84.90;;;11.57;59.89;101008.84;5018964;28;20219;-54
2023/01/14 06:21:45;;;;;;;9.47;4.30;;;9.10;84.90;;;11.52;60.40;101003.28;5036131;28;20197;-53
2023/01/14 06:24:12;;;;;;;16.43;6.03;;;9.10;84.90;;;11.45;60.15;101009.41;5036772;28;20562;-52
2023/01/14 06:26:39;;;;;;;13.63;4.20;;;9.10;84.90;;;11.43;60.02;101011.41;5036067;28;20248;-52
2023/01/14 06:29:11;;;;;;;12.67;4.43;;;9.00;85.00;;;11.43;60.43;101006.13;5030681;28;20274;-55
2023/01/14 06:31:41;;;;;;;18.10;4.77;;;9.00;85.00;;;11.39;60.57;101004.81;5016867;28;20201;-52
2023/01/14 06:34:08;;;;;;;13.97;4.20;;;8.90;85.10;;;11.32;60.79;100993.31;5026663;28;20204;-52
2023/01/14 06:36:37;;;;;;;16.60;4.60;;;9.00;85.20;;;11.31;60.76;100996.97;5036261;28;20233;-53
2023/01/14 06:39:05;;;;;;;13.30;4.77;;;8.90;85.20;;;11.29;60.60;100994.50;5036621;28;20218;-55
2023/01/14 06:41:32;;;;;;;9.53;3.87;;;8.90;85.20;;;11.25;60.45;100981.84;5036222;28;20663;-56
2023/01/14 06:43:59;;;;;;;13.70;4.07;;;8.90;85.20;;;11.22;60.70;100984.84;5023908;28;20214;-51
2023/01/14 06:46:26;;;;;;;14.60;4.83;;;8.80;85.20;;;11.19;60.89;100979.91;5036975;28;20187;-55
2023/01/14 06:48:55;;;;;;;13.47;4.50;;;8.80;85.40;;;11.14;60.64;100976.97;5036213;28;20669;-53
2023/01/14 06:51:23;;;;;;;11.43;4.53;;;8.80;85.40;;;11.11;60.67;100969.41;5035637;28;20199;-53
2023/01/14 06:53:50;;;;;;;15.13;5.03;;;8.70;85.40;;;11.09;60.91;100966.13;5036398;28;20511;-50
2023/01/14 06:56:18;;;;;;;17.77;5.07;;;8.70;85.50;;;11.05;61.16;100967.47;5028165;28;20211;-52
2023/01/14 06:58:47;;;;;;;18.17;4.40;;;8.70;85.60;;;11.05;61.16;100959.56;5016486;28;20293;-53
2023/01/14 07:01:14;;;;;;;11.47;4.73;;;8.70;85.60;;;11.07;60.76;100958.41;5021797;28;20197;-54
2023/01/14 07:03:41;;;;;;;13.10;4.43;;;8.60;85.60;;;11.03;60.98;100962.34;5036807;28;20233;-52
2023/01/14 07:06:10;;;;;;;17.60;5.10;;;8.60;85.80;;;11.00;60.75;100959.25;5033564;28;20202;-56
2023/01/14 07:08:37;;;;;;;9.30;4.23;;;8.60;85.90;;;10.96;61.51;100960.59;5015282;28;20907;-52
2023/01/14 07:11:04;;;;;;;10.50;4.17;;;8.60;85.90;;;10.98;60.94;100963.88;5029130;28;20194;-52
2023/01/14 07:13:32;;;;;;;13.73;4.60;;;8.60;86.00;;;11.02;60.71;100952.00;5014970;28;20198;-56
2023/01/14 07:15:59;;;;;;;15.80;4.97;;;8.60;86.00;;;11.04;60.81;100942.09;5015490;28;20191;-54
2023/01/14 07:18:26;;;;;;;12.77;4.60;;;8.50;85.90;;;11.02;61.13;100938.81;5014283;28;20277;-52
2023/01/14 07:20:56;;;;;;;16.27;4.80;;;8.60;86.00;;;11.07;61.16;100931.22;5024634;28;20205;-51
2023/01/14 07:23:25;;;;;;;15.27;5.83;;;8.50;86.00;;;11.09;60.72;100913.44;5035585;28;20221;-53
2023/01/14 07:25:55;;;;;;;15.60;5.10;;;8.60;86.00;;;11.09;60.91;100916.06;5035378;28;20555;-55
2023/01/14 07:28:24;;;;;;;16.00;5.50;;;8.60;86.00;;;11.07;61.07;100911.00;5035384;28;20214;-55
2023/01/14 07:30:51;;;;;;;12.03;4.93;;;8.60;85.80;;;11.08;60.78;100902.06;5017719;28;20203;-56
2023/01/14 07:33:18;;;;;;;15.17;5.30;;;8.60;85.80;;;11.07;60.50;100900.44;5015506;28;20199;-53
2023/01/14 07:35:47;;;;;;;16.17;5.33;;;8.60;85.90;;;11.08;60.44;100906.53;5028169;28;20194;-55
2023/01/14 07:38:14;;;;;;;15.30;4.90;;;8.60;85.80;;;11.11;60.17;100911.44;5017116;28;20269;-54
2023/01/14 07:40:42;;;;;;;17.40;6.40;;;8.60;85.80;;;10.97;60.66;100906.91;5019406;28;20640;-53
2023/01/14 07:43:09;;;;;;;15.10;5.23;;;8.60;85.70;;;11.00;60.69;100903.94;5034884;28;20623;-52
2023/01/14 07:45:36;;;;;;;15.27;6.53;;;8.60;85.70;;;11.00;60.87;100909.22;5034636;28;20674;-54
2023/01/14 07:48:03;;;;;;;20.63;6.63;;;8.60;85.70;;;11.01;60.69;100911.66;5033249;28;20214;-53
2023/01/14 07:50:30;;;;;;;13.30;5.20;;;8.60;85.70;;;11.06;60.68;100905.88;5014996;28;20195;-53
2023/01/14 07:52:59;;;;;;;24.23;6.33;;;8.70;85.60;;;11.07;60.42;100897.00;5023934;28;20198;-53
2023/01/14 07:55:27;;;;;;;20.83;6.43;;;8.70;85.70;;;11.12;60.66;100897.28;5018088;28;20201;-55
2023/01/14 07:57:57;;;;;;;21.30;7.10;;;8.60;85.60;;;11.14;60.24;100900.56;5023212;28;20253;-58
2023/01/14 08:00:24;;;;;;;15.93;5.60;;;8.70;85.60;;;11.14;60.58;100900.56;5015356;28;20198;-53
2023/01/14 08:02:51;;;;;;;18.07;6.70;;;8.70;85.50;;;11.18;60.13;100894.78;5022883;28;20229;-52
2023/01/14 08:05:18;;;;;;;16.43;5.70;;;8.70;85.40;;;11.14;60.76;100890.84;5034824;28;20191;-52
2023/01/14 08:07:45;;;;;;;11.33;5.17;;;8.70;85.30;;;11.24;60.17;100886.19;5034380;28;20211;-55
2023/01/14 08:10:12;;;;;;;16.50;6.20;;;8.70;85.30;;;11.19;60.61;100890.34;5034805;28;20194;-56
2023/01/14 08:12:39;;;;;;;19.20;6.30;;;8.70;85.20;;;11.12;60.46;100887.59;5015750;28;20222;-54
2023/01/14 08:15:11;;;;;;;14.07;5.67;;;8.80;85.20;;;11.13;60.98;100880.47;5014507;28;20199;-52
2023/01/14 08:17:39;;;;;;;17.23;5.70;;;8.70;85.10;;;11.11;60.38;100882.47;5029780;28;20622;-52
2023/01/14 08:20:07;;;;;;;24.17;6.50;;;8.70;85.20;;;11.09;60.36;100876.56;5034678;28;20197;-52
2023/01/14 08:22:35;;;;;;;18.70;6.87;;;8.80;85.30;;;11.10;60.93;100868.47;5034146;28;20664;-53
2023/01/14 08:25:03;;;;;;;14.60;6.73;;;8.80;85.30;;;11.07;60.82;100860.13;5028225;28;20195;-56
2023/01/14 08:27:32;;;;;;;18.80;6.40;;;8.70;85.20;;;11.04;60.74;100856.00;5014964;28;20219;-53
2023/01/14 08:29:59;;;;;;;20.87;6.73;;;8.70;85.30;;;11.05;61.02;100848.94;5017177;28;20218;-53
2023/01/14 08:32:28;;;;;;;20.20;5.80;;;8.70;85.30;;;11.14;60.88;100847.88;5032711;28;20209;-53
2023/01/14 08:34:55;;;;;;;23.87;7.90;;;8.80;85.50;;;11.18;60.78;100843.91;5033756;28;20198;-52
2023/01/14 08:37:22;;;;;;;26.30;7.10;;;8.80;85.50;;;11.21;60.95;100840.91;5034174;28;20221;-54
2023/01/14 08:39:49;;;;;;;15.50;6.67;;;8.80;85.50;;;11.21;60.79;100830.38;5033337;28;20195;-52
2023/01/14 08:42:16;;;;;;;20.50;6.43;;;8.80;85.50;;;11.14;61.06;100818.91;5033999;28;20194;-53
2023/01/14 08:44:43;;;;;;;20.63;7.30;;;8.80;85.60;;;11.11;61.50;100812.19;5023831;28;20207;-53
2023/01/14 08:47:10;;;;;;;20.10;6.40;;;8.80;85.50;;;11.23;60.44;100812.59;5013746;28;20199;-52
2023/01/14 08:49:38;;;;;;;21.30;6.63;;;8.90;86.20;;;11.27;60.60;100813.84;5027705;28;20628;-53
2023/01/14 08:52:05;;;;;;;18.40;7.47;;;8.90;85.50;;;11.29;61.04;100809.25;5033782;28;20178;-55
2023/01/14 08:54:32;;;;;;;17.97;6.47;;;8.90;85.30;;;11.39;60.93;100799.25;5018052;28;20201;-56
2023/01/14 08:56:59;;;;;;;20.33;6.33;;;8.90;85.30;;;11.34;60.29;100797.16;5019042;28;20636;-53
2023/01/14 08:59:26;;;;;;;19.20;6.20;;;8.90;85.10;;;11.39;60.40;100794.81;5029804;28;20211;-54
2023/01/14 09:01:53;;;;;;;18.97;7.40;;;9.00;85.30;;;11.27;60.27;100790.13;5032536;28;20213;-54
2023/01/14 09:04:24;;;;;;;21.23;7.00;;;8.90;85.20;;;11.33;60.32;100782.38;5032495;28;20246;-55
2023/01/14 09:18:01;;;;;;;23.73;6.67;;;9.10;85.00;;;11.39;60.30;100746.56;5012871;28;20207;-53
2023/01/14 09:20:33;;;;;;;18.20;6.20;;;9.10;85.00;;;11.34;60.51;100744.47;5013831;28;20199;-55
2023/01/14 09:23:04;;;;;;;22.80;6.90;;;9.00;85.00;;;11.33;60.46;100742.84;5013841;28;20210;-56
2023/01/14 09:25:34;;;;;;;17.20;6.13;;;9.10;85.10;;;11.35;60.77;100742.66;5012346;28;20299;-54
2023/01/14 09:28:01;;;;;;;21.33;6.53;;;9.10;85.00;;;11.39;60.62;100746.56;5031076;28;20206;-53
2023/01/14 09:30:29;;;;;;;21.87;6.20;;;9.10;85.00;;;11.36;60.42;100728.50;5031136;28;20189;-51
2023/01/14 09:32:58;;;;;;;24.90;7.20;;;9.10;84.90;;;11.34;60.56;100723.38;5021423;28;20212;-55
2023/01/14 09:35:26;;;;;;;19.50;5.47;;;9.10;84.90;;;11.35;60.74;100726.84;5034039;28;20262;-54
2023/01/14 09:37:52;;;;;;;21.40;6.10;;;9.10;84.90;;;11.49;60.79;100712.88;5033979;28;20283;-53
2023/01/14 09:40:21;;;;;;;18.47;5.50;;;9.10;84.80;;;11.58;60.20;100703.88;5033267;28;20265;-54
2023/01/14 09:42:50;;;;;;;20.80;5.60;;;9.20;84.80;;;11.57;59.96;100703.06;5033520;28;20201;-53
2023/01/14 09:45:26;;;;;;;18.23;5.53;;;9.20;84.40;;;11.55;59.63;100696.34;5021140;28;20242;-53
2023/01/14 09:47:58;;;;;;;20.47;4.60;;;9.20;84.30;;;11.49;59.59;100694.41;5020218;28;20309;-53
2023/01/14 09:50:42;;;;;;;15.70;5.20;;;9.20;84.10;;;11.51;59.91;100687.13;5032606;28;20183;-52
2023/01/14 09:53:31;;;;;;;19.77;4.80;;;9.20;84.10;;;11.49;59.91;100683.88;5039191;28;20186;-53
2023/01/14 09:56:07;;;;;;;17.33;6.57;;;9.20;83.80;;;11.58;59.72;100682.78;5033348;28;20669;-53
2023/01/14 09:58:39;;;;;;;21.27;5.23;;;9.30;83.80;;;11.61;59.06;100674.50;5033793;28;20263;-55
2023/01/14 10:01:17;;;;;;;20.63;4.63;;;9.30;83.30;;;11.54;59.38;100670.97;5021448;28;20223;-52
2023/01/14 10:03:54;;;;;;;15.67;3.87;;;9.30;83.00;;;11.59;58.86;100660.69;5014285;28;20203;-56
2023/01/14 10:06:21;;;;;;;17.73;4.37;;;9.30;82.80;;;11.63;59.08;100663.78;5013445;28;20261;-56
2023/01/14 10:08:56;;;;;;;15.33;3.87;;;9.30;82.50;;;11.62;58.75;100647.16;5013417;28;20259;-53
2023/01/14 10:11:29;;;;;;;15.67;4.77;;;9.30;82.30;;;11.61;58.20;100639.41;5014280;28;20191;-53
2023/01/14 10:14:07;;;;;;;17.63;4.03;;;9.30;82.10;;;11.71;58.39;100635.53;5014054;28;20172;-53
2023/01/14 10:16:41;;;;;;;16.67;4.57;;;9.40;82.30;;;11.59;58.59;100621.16;5032724;28;20703;-55
2023/01/14 10:19:18;;;;;;;16.13;4.13;;;9.40;81.90;;;11.72;58.14;100610.00;5035569;28;20225;-53
2023/01/14 10:21:50;;;;;;;14.83;4.03;;;9.50;82.00;;;11.70;58.10;100614.63;5037449;28;20202;-54
2023/01/14 10:24:20;;;;;;;16.77;5.33;;;9.40;81.70;;;11.68;58.50;100606.91;5037442;28;20262;-53
2023/01/14 10:26:51;;;;;;;15.43;3.63;;;9.40;81.90;;;11.61;58.88;100600.69;5036146;28;20289;-55
2023/01/14 10:29:21;;;;;;;12.70;4.20;;;9.40;82.10;;;11.67;58.84;100597.31;5036660;28;20222;-53
2023/01/14 10:31:55;;;;;;;13.60;4.47;;;9.50;82.50;;;11.65;59.18;100594.03;5036802;28;20197;-53
2023/01/14 10:34:28;;;;;;;11.37;4.57;;;9.50;82.70;;;11.56;59.50;100580.16;5034164;28;20182;-54
2023/01/14 10:36:55;;;;;;;15.17;4.13;;;9.40;83.20;;;11.64;59.84;100563.44;5025510;28;20202;-53
2023/01/14 10:39:23;;;;;;;15.17;4.17;;;9.40;83.30;;;11.60;59.69;100564.00;5016587;28;20651;-54
2023/01/14 10:41:51;;;;;;;9.73;3.60;;;9.40;83.70;;;11.36;61.30;100544.84;5028640;28;20207;-53
2023/01/14 10:44:24;;;;;;;22.90;6.43;;;9.40;84.60;;;11.34;61.68;100525.78;5033069;28;20247;-55
2023/01/14 10:46:56;;;;;;;17.53;3.63;;;9.30;85.10;;;11.22;61.61;100521.19;5016433;28;20206;-56
2023/01/14 10:49:33;;;;;;;12.03;3.53;;;9.20;85.60;;;11.10;62.54;100498.94;5018188;28;20242;-53
2023/01/14 10:52:02;;;;;;;14.40;3.87;;;9.10;86.50;;;10.93;63.23;100497.50;5025834;28;20214;-51
2023/01/14 10:54:29;;;;;;;9.93;3.77;;;9.00;86.80;;;10.94;63.66;100491.22;5019259;28;20207;-53
2023/01/14 10:57:10;;;;;;;13.20;3.50;;;9.00;87.50;;;10.99;63.28;100476.50;5027414;28;20201;-52
2023/01/14 10:59:44;;;;;;;14.43;4.43;;;8.90;87.60;;;11.05;63.80;100465.25;5031938;28;20208;-52
2023/01/14 11:02:33;;;;;;;10.43;3.73;;;8.90;88.20;;;10.98;64.21;100458.28;5027738;28;20283;-53